Wetterdaten: Oktober 2014
Datum Temp Feuchte Luftdruck Regen Wind Richtung Sonnenschein UV Solar Windben
01.10.2014 12,6 C 69 % 1026,5 hPa 0,2 l/m 0,0 km/h W-NW 4,83 h 1,4 UV-I 216 W/m 0,0 km/h
02.10.2014 14,7 C 67 % 1028,0 hPa 0,2 l/m 2,0 km/h S-SO 2,33 h 1,4 UV-I 181 W/m 4,0 km/h
03.10.2014 13,0 C 67 % 1024,4 hPa 0,0 l/m 1,8 km/h SO 8,67 h 1,7 UV-I 291 W/m 4,4 km/h
04.10.2014 13,8 C 68 % 1017,0 hPa 0,0 l/m 2,3 km/h SO 8,67 h 1,7 UV-I 301 W/m 11,3 km/h
05.10.2014 10,9 C 68 % 1016,0 hPa 0,0 l/m 0,0 km/h S-SO 6,17 h 1,3 UV-I 225 W/m 0,0 km/h
06.10.2014 12,9 C 68 % 1010,7 hPa 0,0 l/m 4,4 km/h SO 5,83 h 1,5 UV-I 233 W/m 14,5 km/h
07.10.2014 12,3 C 67 % 1003,4 hPa 17,8 l/m 8,2 km/h S 0,83 h 0,9 UV-I 95 W/m 19,7 km/h
08.10.2014 11,9 C 66 % 1005,7 hPa 3,0 l/m 5,9 km/h S-SO 1,00 h 0,7 UV-I 87 W/m 12,9 km/h
09.10.2014 14,4 C 63 % 1007,0 hPa 20,0 l/m 5,3 km/h S 0,08 h 0,9 UV-I 83 W/m 13,3 km/h
10.10.2014 12,3 C 66 % 1014,4 hPa 0,0 l/m 0,1 km/h S 3,00 h 1,4 UV-I 197 W/m 1,2 km/h
11.10.2014 13,7 C 64 % 1012,6 hPa 0,2 l/m 0,2 km/h S-SO 5,08 h 1,4 UV-I 238 W/m 2,0 km/h
12.10.2014 12,9 C 64 % 1012,5 hPa 2,0 l/m 1,6 km/h SO 5,50 h 1,3 UV-I 215 W/m 4,8 km/h
13.10.2014 14,0 C 61 % 1006,3 hPa 1,4 l/m 2,0 km/h S-SO 0,67 h 1,0 UV-I 111 W/m 6,0 km/h
14.10.2014 11,1 C 64 % 1007,2 hPa 0,2 l/m 0,9 km/h S 3,00 h 1,1 UV-I 158 W/m 2,8 km/h
15.10.2014 10,7 C 63 % 1006,4 hPa 0,0 l/m 0,0 km/h S 1,42 h 0,9 UV-I 102 W/m 1,2 km/h
16.10.2014 13,0 C 60 % 1005,8 hPa 3,0 l/m 5,8 km/h S 1,00 h 0,8 UV-I 97 W/m 19,3 km/h
17.10.2014 12,3 C 60 % 1014,3 hPa 0,8 l/m 0,1 km/h S-SW 0,33 h 0,9 UV-I 69 W/m 2,0 km/h
18.10.2014 13,7 C 60 % 1020,0 hPa 0,2 l/m 9,1 km/h S-SO 5,42 h 1,3 UV-I 203 W/m 15,7 km/h
19.10.2014 17,4 C 63 % 1014,6 hPa 4,2 l/m 5,4 km/h S 6,17 h 1,4 UV-I 229 W/m 20,5 km/h
20.10.2014 12,9 C 61 % 1013,9 hPa 0,2 l/m 2,8 km/h S-SW 0,25 h 0,7 UV-I 77 W/m 14,1 km/h
21.10.2014 9,8 C 62 % 1002,9 hPa 8,6 l/m 9,3 km/h S 0,00 h 0,6 UV-I 49 W/m 27,0 km/h
22.10.2014 7,5 C 65 % 1014,1 hPa 15,6 l/m 13,8 km/h NW 0,00 h 0,6 UV-I 35 W/m 30,5 km/h
23.10.2014 9,2 C 61 % 1022,6 hPa 0,0 l/m 0,2 km/h S 0,17 h 0,7 UV-I 88 W/m 0,8 km/h
24.10.2014 10,6 C 65 % 1019,6 hPa 0,0 l/m 2,5 km/h S 4,42 h 1,2 UV-I 195 W/m 6,4 km/h
25.10.2014 11,1 C 60 % 1019,6 hPa 0,4 l/m 0,0 km/h S 0,00 h 0,6 UV-I 52 W/m 1,2 km/h
26.10.2014 8,5 C 63 % 1024,9 hPa 0,4 l/m 3,3 km/h S-SW 0,25 h 0,8 UV-I 103 W/m 9,3 km/h
27.10.2014 9,1 C 62 % 1024,1 hPa 0,0 l/m 3,1 km/h S 6,58 h 1,1 UV-I 208 W/m 7,2 km/h
28.10.2014 5,4 C 65 % 1018,1 hPa 0,0 l/m 3,6 km/h S-SO 6,25 h 1,1 UV-I 221 W/m 9,7 km/h
29.10.2014 7,1 C 63 % 1018,8 hPa 4,8 l/m 0,9 km/h S 0,08 h 0,7 UV-I 73 W/m 2,0 km/h
30.10.2014 10,8 C 59 % 1023,6 hPa 0,2 l/m 0,0 km/h S-SO 0,00 h 0,6 UV-I 65 W/m 0,0 km/h
31.10.2014 11,8 C 58 % 1022,8 hPa 0,0 l/m 6,3 km/h S 2,92 h 1,0 UV-I 147 W/m 9,7 km/h
Min-Datum 29.10.14 31.10.14 21.10.14 20 Tage 01.10.14 - - - - 01.10.14
Min-Zeit 05:50 10:30 17:25 - 00:00 - - - - 00:00
Minimum 0,8 C 55 % 997,0 hPa - 0,0 km/h - - - - 0,0 km/h
Max-Datum 19.10.14 04.10.14 02.10.14 09.10.14 22.10.14 - 03.10.14 01.10.14 10.10.14 22.10.14
Max-Zeit 14:10 05:30 10:20 03:15 15:55 - 17:25 13:15 14:15 12:10
Maximum 22,7 C 72 % 1029,3 hPa 20,0 l/m 28,3 km/h
NW
- 8,58 h 2,7 UV-I 677 W/m 48,3 km/h
N-NW
Durchschnitt 11,7 C 63 % 1015,4 hPa #83,4 l/m 3,3 km/h S #90:55 h 1,1 UV-I 150 W/m 8,8 km/h

Durchschnitt Minimum Temp.8,3 C
Durchschnitt Maximum Temp.15,6 C